Time;durP1;ratioP1;P1;durP2;ratioP2;P2;SDS_P1;SDS_P2;PMS_P1;PMS_P2;Temp;Humidity;BMP_temperature;BMP_pressure;BME280_temperature;BME280_humidity;BME280_pressure;Samples;Min_cycle;Max_cycle;Signal;HPM_P1;HPM_P2
2021/04/24 00:00:30;;;;;;;15.70;8.05;;;;;;;8.03;57.86;101326.97;5069698;28;20100;-81
2021/04/24 00:02:57;;;;;;;14.07;8.50;;;;;;;8.01;58.30;101326.16;5041419;28;20045;-82
2021/04/24 00:05:32;;;;;;;16.15;8.48;;;;;;;8.01;58.17;101325.28;5039237;28;20107;-82
2021/04/24 00:08:01;;;;;;;12.25;7.53;;;;;;;7.99;58.37;101330.59;5052944;28;20104;-83
2021/04/24 00:10:31;;;;;;;17.02;8.10;;;;;;;7.92;58.88;101315.78;5053283;28;20402;-82
2021/04/24 00:12:59;;;;;;;18.67;8.77;;;;;;;7.97;58.63;101320.97;5057250;28;20136;-82
2021/04/24 00:15:26;;;;;;;17.40;8.80;;;;;;;7.96;58.50;101329.78;5053534;28;20499;-82
2021/04/24 00:17:52;;;;;;;12.75;8.00;;;;;;;7.97;58.53;101331.53;5050508;28;20068;-82
2021/04/24 00:20:21;;;;;;;14.85;8.02;;;;;;;7.96;58.10;101328.00;5060127;28;20074;-83
2021/04/24 00:22:48;;;;;;;13.68;8.02;;;;;;;7.97;58.14;101331.53;5050376;28;20049;-82
2021/04/24 00:25:17;;;;;;;16.30;8.38;;;;;;;7.90;58.94;101322.84;5059418;28;20064;-84
2021/04/24 00:27:46;;;;;;;16.60;8.50;;;;;;;7.89;58.84;101334.31;5055302;28;20164;-83
2021/04/24 00:30:14;;;;;;;18.08;8.65;;;;;;;7.89;58.93;101330.78;5060849;28;20064;-82
2021/04/24 00:32:41;;;;;;;16.20;8.73;;;;;;;7.86;58.46;101322.97;5057086;28;20136;-83
2021/04/24 00:35:11;;;;;;;15.43;8.13;;;;;;;7.88;58.56;101324.66;5057964;28;20055;-83
2021/04/24 00:37:38;;;;;;;15.60;8.52;;;;;;;7.84;59.13;101328.28;5056949;28;20047;-82
2021/04/24 00:40:07;;;;;;;18.25;8.70;;;;;;;7.81;58.55;101324.81;5062989;28;20172;-82
2021/04/24 00:42:36;;;;;;;15.43;9.10;;;;;;;7.79;58.57;101324.00;5047512;28;20048;-82
2021/04/24 00:45:06;;;;;;;16.30;8.48;;;;;;;7.79;58.59;101324.84;5061406;28;20207;-83
2021/04/24 00:47:32;;;;;;;20.80;9.05;;;;;;;7.77;58.40;101316.09;5067717;28;20068;-83
2021/04/24 00:50:18;;;;;;;13.43;8.13;;;;;;;7.79;58.55;101324.00;5067843;28;20052;-82
2021/04/24 00:52:45;;;;;;;13.07;8.60;;;;;;;7.73;58.62;101307.38;5063105;28;20094;-83
2021/04/24 00:55:12;;;;;;;17.98;9.70;;;;;;;7.73;58.83;101315.28;5065924;28;20052;-82
2021/04/24 00:57:41;;;;;;;15.20;8.55;;;;;;;7.65;59.29;101311.09;5068049;28;20054;-83
2021/04/24 01:00:13;;;;;;;17.40;8.32;;;;;;;7.64;59.25;101310.22;5059203;28;20096;-83
2021/04/24 01:02:40;;;;;;;18.25;9.07;;;;;;;7.63;59.21;101307.63;5060360;28;20048;-83
2021/04/24 01:05:15;;;;;;;18.90;8.85;;;;;;;7.63;59.71;101307.63;5068278;28;20080;-82
2021/04/24 01:07:44;;;;;;;22.60;9.45;;;;;;;7.62;58.91;101308.50;5055242;28;20041;-83
2021/04/24 01:10:12;;;;;;;17.55;9.27;;;;;;;7.58;59.57;101302.44;5072268;28;20044;-84
2021/04/24 01:12:42;;;;;;;20.20;9.30;;;;;;;7.60;59.27;101308.53;5059241;28;20048;-84
2021/04/24 01:15:12;;;;;;;18.80;8.77;;;;;;;7.61;59.84;101304.13;5064815;28;20063;-84
2021/04/24 01:17:39;;;;;;;16.48;9.75;;;;;;;7.58;59.26;101314.75;5064049;28;20105;-83
2021/04/24 01:20:07;;;;;;;20.35;8.90;;;;;;;7.56;59.47;101316.53;5051323;28;20140;-83
2021/04/24 01:22:34;;;;;;;21.08;9.20;;;;;;;7.50;60.01;101308.78;5056373;28;20049;-83
2021/04/24 01:25:03;;;;;;;17.48;9.30;;;;;;;7.47;59.98;101308.81;5074397;28;20045;-82
2021/04/24 01:27:30;;;;;;;16.95;10.20;;;;;;;7.45;59.75;101313.25;5059652;28;20068;-83
2021/04/24 01:29:59;;;;;;;14.88;9.35;;;;;;;7.39;60.37;101301.09;5054235;28;20053;-83
2021/04/24 01:32:27;;;;;;;16.48;9.57;;;;;;;7.36;60.47;101304.63;5061138;28;20047;-81
2021/04/24 01:34:54;;;;;;;18.52;10.07;;;;;;;7.36;60.88;101314.31;5039497;28;20117;-85
2021/04/24 01:37:21;;;;;;;17.35;9.25;;;;;;;7.28;60.96;101301.25;5062442;28;20064;-82
2021/04/24 01:39:48;;;;;;;18.70;9.50;;;;;;;7.31;60.86;101310.88;5079002;28;20062;-80
2021/04/24 01:42:14;;;;;;;16.10;9.50;;;;;;;7.24;60.92;101304.00;5075087;28;20052;-80
2021/04/24 01:44:40;;;;;;;18.02;9.93;;;;;;;7.25;61.14;101305.72;5067049;28;20053;-81
2021/04/24 01:47:07;;;;;;;15.88;9.45;;;;;;;7.16;61.13;101298.00;5061398;28;20540;-80
2021/04/24 01:49:33;;;;;;;16.27;9.38;;;;;;;7.17;61.22;101313.78;5062211;28;20091;-81
2021/04/24 01:52:01;;;;;;;18.08;9.18;;;;;;;7.12;61.33;101306.84;5047360;28;20725;-81
2021/04/24 01:54:27;;;;;;;16.02;9.57;;;;;;;7.14;61.71;101307.69;5046315;28;20068;-80
2021/04/24 01:56:56;;;;;;;19.38;10.10;;;;;;;7.11;61.78;101308.59;5070005;28;20064;-81
2021/04/24 01:59:26;;;;;;;16.90;10.38;;;;;;;7.09;61.50;101305.13;5068080;28;20075;-81
2021/04/24 02:01:54;;;;;;;14.82;9.52;;;;;;;7.04;62.19;101309.63;5075990;28;20048;-80
2021/04/24 02:04:23;;;;;;;16.30;9.75;;;;;;;7.02;61.56;101298.25;5073452;28;20038;-80
2021/04/24 02:06:49;;;;;;;20.70;10.30;;;;;;;6.97;62.11;101302.72;5071516;28;20077;-81
2021/04/24 02:09:18;;;;;;;18.67;10.48;;;;;;;6.97;61.82;101294.81;5066215;28;20048;-81
2021/04/24 02:12:13;;;;;;;17.63;10.50;;;;;;;6.93;62.43;101303.66;5083871;28;20049;-82
2021/04/24 02:14:49;;;;;;;19.13;10.73;;;;;;;6.88;62.55;101305.53;5067446;28;20067;-81
2021/04/24 02:17:18;;;;;;;21.00;9.98;;;;;;;6.87;62.67;101307.28;5069363;28;20053;-82
2021/04/24 02:19:47;;;;;;;16.63;10.95;;;;;;;6.88;62.61;101301.13;5073186;28;20045;-81
2021/04/24 02:22:15;;;;;;;18.67;10.70;;;;;;;6.84;62.59;101293.31;5074119;28;20083;-80
2021/04/24 02:24:48;;;;;;;18.17;9.95;;;;;;;6.87;62.41;101295.91;5072874;28;20072;-82
2021/04/24 02:27:18;;;;;;;19.85;11.18;;;;;;;6.85;62.79;101295.03;5057173;28;20044;-82
2021/04/24 02:29:45;;;;;;;18.48;10.52;;;;;;;6.83;62.56;101297.72;5072476;28;20033;-79
2021/04/24 02:32:15;;;;;;;20.10;10.25;;;;;;;6.68;62.68;101271.66;5060052;28;20052;-81
2021/04/24 02:34:46;;;;;;;16.40;9.68;;;;;;;6.81;63.02;101301.25;5051498;28;20050;-83
2021/04/24 02:37:22;;;;;;;22.95;11.25;;;;;;;6.79;62.68;101297.78;5051942;28;20139;-81
2021/04/24 02:39:52;;;;;;;18.92;11.07;;;;;;;6.75;62.95;101296.97;5041113;28;20090;-82
2021/04/24 02:42:22;;;;;;;18.88;11.02;;;;;;;6.71;62.34;101289.16;5057609;28;20099;-81
2021/04/24 02:44:53;;;;;;;15.82;11.07;;;;;;;6.68;63.30;101287.44;5059812;28;20069;-81
2021/04/24 02:47:21;;;;;;;17.35;10.70;;;;;;;6.68;63.03;101292.69;5060279;28;20091;-80
2021/04/24 02:49:49;;;;;;;17.35;10.35;;;;;;;6.67;63.43;101283.94;5071695;28;20033;-79
2021/04/24 02:52:17;;;;;;;18.27;10.90;;;;;;;6.70;63.28;101290.91;5051569;28;20049;-80
2021/04/24 02:54:43;;;;;;;19.88;11.35;;;;;;;6.65;63.31;101283.09;5068090;28;20053;-82
2021/04/24 02:57:10;;;;;;;22.15;11.13;;;;;;;6.68;63.19;101290.94;5056936;28;20045;-81
2021/04/24 02:59:37;;;;;;;20.92;11.07;;;;;;;6.68;63.09;101290.06;5054006;28;20044;-79
2021/04/24 03:02:04;;;;;;;18.83;10.50;;;;;;;6.65;63.25;101295.38;5076730;28;20068;-80
2021/04/24 03:04:30;;;;;;;20.77;10.90;;;;;;;6.59;63.27;101279.72;5068994;28;20055;-79
2021/04/24 03:06:58;;;;;;;20.50;11.35;;;;;;;6.53;63.14;101269.28;5055013;28;20041;-79
2021/04/24 03:09:25;;;;;;;20.02;11.35;;;;;;;6.60;62.79;101277.06;5067755;28;20045;-79
2021/04/24 03:11:53;;;;;;;17.92;10.80;;;;;;;6.60;63.36;101295.47;5047029;28;20080;-80
2021/04/24 03:14:19;;;;;;;21.02;10.98;;;;;;;6.57;63.41;101290.25;5063843;28;20060;-79
2021/04/24 03:16:46;;;;;;;20.05;11.43;;;;;;;6.55;63.71;101294.66;5078695;28;20039;-79
2021/04/24 03:19:12;;;;;;;22.63;12.63;;;;;;;6.49;63.61;101286.88;5064454;28;20112;-80
2021/04/24 03:21:38;;;;;;;15.73;10.68;;;;;;;6.49;64.23;101289.50;5039522;28;20045;-82
2021/04/24 03:24:05;;;;;;;16.67;10.68;;;;;;;6.51;63.93;101284.22;5069000;28;20076;-79
2021/04/24 03:26:34;;;;;;;20.05;11.80;;;;;;;6.47;63.95;101282.50;5070681;28;20044;-83
2021/04/24 03:29:00;;;;;;;21.83;11.88;;;;;;;6.48;63.90;101274.59;5063065;28;20045;-79
2021/04/24 03:31:26;;;;;;;21.52;11.68;;;;;;;6.48;63.48;101285.13;5068812;28;20049;-80
2021/04/24 03:33:52;;;;;;;20.38;11.23;;;;;;;6.45;63.89;101282.56;5061347;28;20044;-79
2021/04/24 03:36:21;;;;;;;17.80;10.43;;;;;;;6.48;63.68;101279.88;5066874;28;20071;-80
2021/04/24 03:38:47;;;;;;;19.60;10.73;;;;;;;6.45;63.94;101279.94;5061697;28;20045;-82
2021/04/24 03:41:16;;;;;;;18.60;11.48;;;;;;;6.47;63.88;101286.00;5059814;28;20052;-82
2021/04/24 03:43:42;;;;;;;20.88;12.20;;;;;;;6.44;63.55;101279.97;5059109;28;20067;-81
2021/04/24 03:46:09;;;;;;;22.55;11.32;;;;;;;6.41;63.80;101280.88;5059869;28;20048;-81
2021/04/24 03:48:38;;;;;;;22.75;11.18;;;;;;;6.35;64.28;101283.59;5050849;28;20045;-82
2021/04/24 03:51:08;;;;;;;20.45;12.07;;;;;;;6.30;64.75;101280.16;5063349;28;20079;-83
2021/04/24 03:53:34;;;;;;;20.02;11.82;;;;;;;6.28;64.29;101292.47;5066847;28;20041;-82
2021/04/24 03:56:01;;;;;;;24.88;11.82;;;;;;;6.27;64.32;101290.75;5052886;28;20055;-81
2021/04/24 03:58:27;;;;;;;21.20;12.38;;;;;;;6.28;64.04;101295.09;5071053;28;20132;-83
2021/04/24 04:00:53;;;;;;;20.98;11.50;;;;;;;6.28;64.59;101287.22;5062566;28;20428;-81
2021/04/24 04:03:20;;;;;;;18.83;10.90;;;;;;;6.26;64.14;101286.38;5071514;28;20072;-79
2021/04/24 04:05:48;;;;;;;20.58;11.60;;;;;;;6.28;64.08;101289.84;5084757;28;20045;-82
2021/04/24 04:08:16;;;;;;;19.73;11.27;;;;;;;6.31;63.87;101292.41;5080392;28;20079;-83
2021/04/24 04:10:44;;;;;;;18.88;11.23;;;;;;;6.26;64.16;101284.59;5067765;28;20060;-82
2021/04/24 04:13:12;;;;;;;20.25;11.25;;;;;;;6.24;64.13;101290.78;5064339;28;20029;-81
2021/04/24 04:15:39;;;;;;;18.63;11.70;;;;;;;6.20;64.06;101295.22;5069564;28;20053;-80
2021/04/24 04:18:19;;;;;;;20.75;11.07;;;;;;;6.22;64.25;101298.69;5072427;28;20045;-84
2021/04/24 04:20:48;;;;;;;20.85;10.95;;;;;;;6.19;64.23;101295.22;5062413;28;20074;-83
2021/04/24 04:23:21;;;;;;;18.52;11.25;;;;;;;6.26;64.12;101302.16;5066666;28;20069;-84
2021/04/24 04:25:49;;;;;;;26.13;11.60;;;;;;;6.27;64.46;101298.63;5058926;28;20112;-82
2021/04/24 04:28:16;;;;;;;22.40;12.27;;;;;;;6.29;63.71;101296.84;5079262;28;20076;-83
2021/04/24 04:30:42;;;;;;;20.42;11.38;;;;;;;6.27;64.30;101293.38;5066850;28;20084;-83
2021/04/24 04:33:09;;;;;;;21.10;11.75;;;;;;;6.31;63.68;101300.28;5075859;28;20052;-81
2021/04/24 04:35:39;;;;;;;23.00;12.10;;;;;;;6.30;63.71;101298.56;5044913;28;20065;-80
2021/04/24 04:38:06;;;;;;;20.38;10.77;;;;;;;6.34;63.31;101295.00;5068319;28;20072;-80
2021/04/24 04:40:34;;;;;;;21.30;11.88;;;;;;;6.32;63.81;101291.50;5072373;28;20052;-81
2021/04/24 04:43:02;;;;;;;19.35;10.75;;;;;;;6.32;63.80;101292.38;5071656;28;20072;-80
2021/04/24 04:45:29;;;;;;;22.33;12.13;;;;;;;6.34;63.77;101293.25;5063204;28;20098;-79
2021/04/24 04:47:55;;;;;;;21.73;10.43;;;;;;;6.43;63.49;101302.78;5072504;28;20049;-80
2021/04/24 04:50:27;;;;;;;19.92;11.52;;;;;;;6.50;62.96;101307.03;5066799;28;20067;-80
2021/04/24 04:52:55;;;;;;;21.70;10.98;;;;;;;6.52;63.02;101301.75;5056213;28;20060;-81
2021/04/24 04:55:22;;;;;;;21.25;11.90;;;;;;;6.62;62.42;101296.28;5080629;28;20045;-81
2021/04/24 04:57:50;;;;;;;18.55;11.27;;;;;;;6.64;62.70;101301.53;5060391;28;20048;-79
2021/04/24 05:00:18;;;;;;;18.75;10.90;;;;;;;6.74;62.20;101310.16;5065069;28;20049;-81
2021/04/24 05:02:45;;;;;;;21.10;11.15;;;;;;;6.78;62.48;101301.28;5059446;28;20087;-79
2021/04/24 05:05:12;;;;;;;25.17;11.77;;;;;;;6.77;61.76;101299.59;5060193;28;20442;-79
2021/04/24 05:07:40;;;;;;;20.13;11.70;;;;;;;6.81;61.67;101311.78;5051380;28;20132;-80
2021/04/24 05:10:19;;;;;;;19.45;11.70;;;;;;;6.86;62.02;101312.59;5061743;28;20518;-83
2021/04/24 05:12:47;;;;;;;20.48;11.15;;;;;;;6.89;61.92;101302.00;5050711;28;20080;-83
2021/04/24 05:15:28;;;;;;;22.30;11.50;;;;;;;6.95;62.15;101307.16;5054178;28;20040;-83
2021/04/24 05:17:54;;;;;;;21.67;11.45;;;;;;;7.02;61.66;101307.03;5070909;28;20071;-84
2021/04/24 05:20:20;;;;;;;23.15;11.32;;;;;;;7.01;60.79;101301.78;5075610;28;20049;-81
2021/04/24 05:22:47;;;;;;;20.38;10.60;;;;;;;7.06;61.44;101310.47;5073913;28;20029;-82
2021/04/24 05:25:15;;;;;;;19.42;10.98;;;;;;;7.08;61.22;101313.09;5091964;28;20083;-81
2021/04/24 05:27:46;;;;;;;17.42;10.60;;;;;;;7.16;60.95;101319.06;5080329;28;20021;-83
2021/04/24 05:30:17;;;;;;;21.27;11.65;;;;;;;7.25;60.26;101318.88;5071925;28;20060;-81
2021/04/24 05:32:43;;;;;;;20.00;11.27;;;;;;;7.32;60.58;101320.53;5055183;28;20046;-82
2021/04/24 05:35:11;;;;;;;18.85;10.45;;;;;;;7.43;60.46;101320.31;5055930;28;20473;-82
2021/04/24 05:37:37;;;;;;;19.98;10.93;;;;;;;7.49;59.62;101317.56;5054923;28;20049;-81
2021/04/24 05:40:04;;;;;;;18.15;10.35;;;;;;;7.64;59.39;101327.81;5057079;28;20075;-82
2021/04/24 05:42:31;;;;;;;23.02;11.48;;;;;;;7.63;58.93;101323.44;5052809;28;20067;-83
2021/04/24 05:44:58;;;;;;;20.60;11.38;;;;;;;7.69;59.31;101325.97;5057978;28;20055;-82
2021/04/24 05:47:25;;;;;;;21.60;11.65;;;;;;;7.77;58.50;101324.00;5052243;28;20199;-82
2021/04/24 05:49:52;;;;;;;21.50;11.40;;;;;;;7.85;58.65;101322.09;5055032;28;20137;-81
2021/04/24 05:52:24;;;;;;;18.02;10.55;;;;;;;7.99;58.12;101327.09;5043038;28;20109;-82
2021/04/24 05:54:50;;;;;;;20.17;10.93;;;;;;;8.08;57.59;101327.75;5054465;28;20496;-82
2021/04/24 05:57:17;;;;;;;15.98;10.48;;;;;;;8.09;57.72;101331.25;5038868;28;20045;-82
2021/04/24 05:59:43;;;;;;;26.05;11.23;;;;;;;8.15;56.96;101336.41;5054078;28;20148;-82
2021/04/24 06:02:10;;;;;;;17.98;10.35;;;;;;;8.04;57.54;101304.09;5052744;28;20064;-82
2021/04/24 06:04:36;;;;;;;19.38;10.40;;;;;;;8.27;57.46;101336.13;5045826;28;20041;-80
2021/04/24 06:07:04;;;;;;;17.15;11.18;;;;;;;8.39;57.66;101342.91;5073860;28;20041;-81
2021/04/24 06:09:34;;;;;;;22.10;11.15;;;;;;;8.53;56.98;101335.53;5043791;28;20049;-83
2021/04/24 06:12:01;;;;;;;18.30;10.52;;;;;;;8.72;56.76;101331.56;5064265;28;20311;-79
2021/04/24 06:14:27;;;;;;;21.45;10.77;;;;;;;8.75;56.25;101318.28;5056663;28;20511;-82
2021/04/24 06:16:53;;;;;;;22.90;11.55;;;;;;;8.89;55.93;101330.28;5070260;28;20074;-82
2021/04/24 06:19:19;;;;;;;18.58;11.60;;;;;;;8.98;55.67;101340.59;5069489;28;20396;-81
2021/04/24 06:21:46;;;;;;;25.77;10.68;;;;;;;9.42;54.87;101320.94;5060429;28;20075;-85
2021/04/24 06:24:14;;;;;;;20.75;11.13;;;;;;;10.64;51.51;101331.41;5067001;28;20059;-82
2021/04/24 06:26:45;;;;;;;18.63;10.93;;;;;;;11.80;47.21;101327.41;5066350;28;20707;-82
2021/04/24 06:29:11;;;;;;;20.10;10.80;;;;;;;12.88;45.29;101334.63;5072773;28;20056;-83
2021/04/24 06:31:38;;;;;;;20.10;10.85;;;;;;;13.36;43.48;101327.31;5063673;28;20048;-84
2021/04/24 06:34:05;;;;;;;18.40;10.43;;;;;;;14.30;41.58;101322.97;5057799;28;20045;-79
2021/04/24 06:36:31;;;;;;;17.48;10.20;;;;;;;15.17;39.38;101332.00;5069442;28;20049;-80
2021/04/24 06:38:58;;;;;;;17.58;10.18;;;;;;;15.81;38.05;101332.19;5071765;28;20065;-83
2021/04/24 06:41:26;;;;;;;15.35;10.05;;;;;;;15.44;37.69;101325.22;5057983;28;20145;-82
2021/04/24 06:43:52;;;;;;;16.80;10.60;;;;;;;15.15;38.25;101309.88;5077910;28;20232;-81
2021/04/24 06:46:18;;;;;;;17.38;10.15;;;;;;;15.16;38.87;101314.25;5074327;28;20075;-83
2021/04/24 06:48:45;;;;;;;16.02;10.50;;;;;;;15.73;37.59;101316.59;5072546;28;20071;-84
2021/04/24 06:51:11;;;;;;;15.30;9.68;;;;;;;16.35;36.23;101320.28;5069162;28;20052;-82
2021/04/24 06:53:37;;;;;;;18.67;9.73;;;;;;;16.26;36.06;101307.44;5075749;28;20099;-81
2021/04/24 06:56:05;;;;;;;13.25;9.02;;;;;;;16.96;34.83;101322.16;5058411;28;20071;-82
2021/04/24 06:58:36;;;;;;;13.90;9.00;;;;;;;17.36;34.23;101314.41;5071043;28;20029;-80
2021/04/24 07:01:02;;;;;;;16.70;10.00;;;;;;;17.54;33.39;101322.19;5071867;28;20045;-81
2021/04/24 07:03:30;;;;;;;16.60;9.50;;;;;;;17.33;33.49;101311.91;5054781;28;20377;-81
2021/04/24 07:05:56;;;;;;;14.93;9.93;;;;;;;17.18;33.79;101319.91;5055398;28;20155;-82
2021/04/24 07:08:26;;;;;;;15.15;9.73;;;;;;;17.31;33.49;101319.19;5052429;28;20316;-82
2021/04/24 07:10:52;;;;;;;15.88;9.23;;;;;;;17.50;33.61;101323.31;5059533;28;20064;-83
2021/04/24 07:13:18;;;;;;;14.07;9.20;;;;;;;17.33;33.82;101318.13;5049372;28;20080;-82
2021/04/24 07:15:47;;;;;;;15.32;8.88;;;;;;;16.96;34.73;101323.94;5074409;28;20045;-81
2021/04/24 07:18:14;;;;;;;12.73;8.10;;;;;;;17.14;36.63;101326.41;5072524;28;20045;-83
2021/04/24 07:20:41;;;;;;;16.50;8.73;;;;;;;17.50;35.97;101319.78;5071648;28;20068;-80
2021/04/24 07:23:11;;;;;;;15.35;8.70;;;;;;;17.06;34.24;101293.88;5066010;28;20076;-81
2021/04/24 07:25:46;;;;;;;14.00;8.52;;;;;;;17.00;34.56;101323.66;5042502;28;20516;-82
2021/04/24 07:28:17;;;;;;;13.07;9.07;;;;;;;16.80;34.72;101315.97;5059710;28;20049;-80
2021/04/24 07:30:47;;;;;;;16.60;8.70;;;;;;;16.68;35.29;101324.72;5052643;28;20048;-83
2021/04/24 07:33:16;;;;;;;14.27;9.32;;;;;;;17.14;34.43;101312.16;5052436;28;20053;-80
2021/04/24 07:35:44;;;;;;;17.05;9.23;;;;;;;17.13;34.38;101319.34;5061907;28;20075;-82
2021/04/24 07:38:10;;;;;;;17.23;9.30;;;;;;;17.22;34.23;101319.72;5062678;28;20212;-82
2021/04/24 07:40:37;;;;;;;13.85;9.10;;;;;;;17.25;33.93;101315.06;5044220;28;20045;-79
2021/04/24 07:43:04;;;;;;;12.93;8.48;;;;;;;17.16;34.12;101321.81;5065697;28;20048;-82
2021/04/24 07:45:33;;;;;;;11.88;8.30;;;;;;;17.66;33.63;101317.91;5064295;28;20071;-83
2021/04/24 07:47:59;;;;;;;13.70;8.32;;;;;;;18.01;32.69;101314.84;5061233;28;20058;-81
2021/04/24 07:50:25;;;;;;;14.40;8.43;;;;;;;17.91;32.60;101309.22;5058566;28;20729;-82
2021/04/24 07:52:53;;;;;;;13.35;8.43;;;;;;;17.15;33.54;101319.25;5047736;28;20057;-82
2021/04/24 07:55:19;;;;;;;14.82;8.27;;;;;;;16.71;35.00;101317.34;5052407;28;20160;-82
2021/04/24 07:57:46;;;;;;;13.55;8.90;;;;;;;16.14;36.06;101317.00;5051961;28;20088;-83
2021/04/24 08:00:13;;;;;;;13.75;8.88;;;;;;;15.88;36.89;101306.03;5054753;28;20055;-84
2021/04/24 08:02:39;;;;;;;12.48;8.50;;;;;;;16.04;36.19;101321.13;5059076;28;20621;-82
2021/04/24 08:05:10;;;;;;;16.08;9.65;;;;;;;16.51;36.31;101317.63;5041939;28;20053;-82
2021/04/24 08:08:01;;;;;;;15.00;9.07;;;;;;;17.26;34.90;101313.25;5056502;28;20052;-83
2021/04/24 08:10:32;;;;;;;13.15;8.60;;;;;;;17.57;34.52;101294.34;5054112;28;20053;-82
2021/04/24 08:13:03;;;;;;;14.47;9.27;;;;;;;17.74;33.13;101318.31;5062452;28;20049;-82
2021/04/24 08:15:39;;;;;;;13.90;8.43;;;;;;;17.39;34.75;101307.03;5064932;28;20056;-84
2021/04/24 08:18:08;;;;;;;13.65;8.15;;;;;;;17.40;34.52;101302.56;5066947;28;20045;-83
2021/04/24 08:20:37;;;;;;;17.40;8.98;;;;;;;17.45;34.76;101305.81;5068854;28;20034;-84
2021/04/24 08:23:09;;;;;;;15.15;8.68;;;;;;;18.06;33.52;101310.06;5070943;28;20053;-82
2021/04/24 08:25:36;;;;;;;13.90;8.50;;;;;;;17.90;33.27;101306.63;5048617;28;20057;-81
2021/04/24 08:28:05;;;;;;;12.75;8.43;;;;;;;17.11;34.99;101310.53;5076061;28;20055;-84
2021/04/24 08:30:32;;;;;;;14.90;8.90;;;;;;;16.70;35.60;101314.75;5064540;28;20053;-82
2021/04/24 08:33:00;;;;;;;17.17;8.88;;;;;;;16.21;37.36;101319.34;5065579;28;20048;-84
2021/04/24 08:35:26;;;;;;;15.60;8.52;;;;;;;15.37;38.05;101318.50;5060350;28;20048;-83
2021/04/24 08:37:53;;;;;;;15.20;8.57;;;;;;;14.84;39.78;101316.75;5066783;28;20054;-83
2021/04/24 08:40:20;;;;;;;15.75;8.95;;;;;;;14.29;40.66;101311.44;5066301;28;20087;-83
2021/04/24 08:42:51;;;;;;;15.27;9.75;;;;;;;14.00;42.26;101304.84;5060805;28;20041;-82
2021/04/24 08:45:23;;;;;;;18.27;8.93;;;;;;;13.68;42.58;101311.63;5063146;28;20123;-81
2021/04/24 08:47:54;;;;;;;17.23;9.07;;;;;;;13.56;43.91;101303.31;5069035;28;20044;-81
2021/04/24 08:50:28;;;;;;;17.95;9.45;;;;;;;13.54;42.89;101315.81;5063606;28;20132;-81
2021/04/24 08:52:56;;;;;;;14.73;8.40;;;;;;;13.20;43.60;101306.69;5051944;28;20037;-81
2021/04/24 08:55:27;;;;;;;16.17;8.75;;;;;;;13.11;43.72;101300.84;5045737;28;20041;-82
2021/04/24 08:57:54;;;;;;;17.13;9.13;;;;;;;13.05;44.16;101302.00;5056675;28;20087;-80
2021/04/24 09:00:24;;;;;;;14.88;8.43;;;;;;;12.87;43.64;101298.31;5061621;28;20077;-82
2021/04/24 09:02:51;;;;;;;16.95;9.38;;;;;;;12.62;44.76;101284.31;5059265;28;20075;-81
2021/04/24 09:05:23;;;;;;;12.50;7.57;;;;;;;12.68;43.72;101289.38;5058174;28;20053;-82
2021/04/24 09:08:04;;;;;;;13.93;8.18;;;;;;;12.70;43.96;101292.84;5053758;28;20045;-81
2021/04/24 09:10:40;;;;;;;12.77;7.63;;;;;;;12.62;43.64;101293.16;5059866;28;20471;-81
2021/04/24 09:13:07;;;;;;;16.33;7.32;;;;;;;12.57;43.37;101286.31;5059538;28;20083;-82
2021/04/24 09:15:34;;;;;;;16.35;8.68;;;;;;;12.58;43.64;101296.00;5063640;28;20079;-83
2021/04/24 09:18:05;;;;;;;13.65;7.20;;;;;;;12.62;43.55;101295.81;5060867;28;20056;-81
2021/04/24 09:20:55;;;;;;;14.82;7.88;;;;;;;12.75;43.94;101288.19;5062164;28;20108;-83
2021/04/24 09:23:29;;;;;;;14.80;7.95;;;;;;;12.67;44.29;101284.13;5052755;28;20049;-84
2021/04/24 09:26:10;;;;;;;18.23;8.18;;;;;;;12.62;44.87;101286.97;5063377;28;20460;-82
2021/04/24 09:28:41;;;;;;;11.95;7.35;;;;;;;12.80;44.81;101280.88;5060713;28;20051;-82
2021/04/24 09:31:18;;;;;;;14.50;7.95;;;;;;;12.96;42.97;101284.63;5060502;28;20053;-81
2021/04/24 09:33:46;;;;;;;18.00;8.55;;;;;;;12.89;42.21;101274.34;5042779;28;20064;-81
2021/04/24 09:36:15;;;;;;;15.40;8.05;;;;;;;12.82;42.51;101279.03;5056364;28;20068;-82
2021/04/24 09:38:54;;;;;;;12.60;7.97;;;;;;;12.78;41.66;101280.09;5065597;28;20090;-82
2021/04/24 09:41:31;;;;;;;17.17;8.68;;;;;;;12.77;41.93;101282.81;5069731;28;20122;-80
2021/04/24 09:44:03;;;;;;;14.40;7.85;;;;;;;12.80;42.60;101280.03;5058836;28;20111;-79
2021/04/24 09:46:52;;;;;;;15.50;8.30;;;;;;;12.92;42.79;101275.03;5069136;28;20049;-85
2021/04/24 09:49:33;;;;;;;14.95;7.85;;;;;;;13.12;42.23;101268.00;5066559;28;20124;-81
2021/04/24 09:52:08;;;;;;;15.25;7.45;;;;;;;13.33;42.04;101277.75;5069612;28;20229;-81
2021/04/24 09:54:46;;;;;;;12.45;7.05;;;;;;;13.56;41.86;101269.59;5076165;28;20036;-80
2021/04/24 09:57:21;;;;;;;14.10;7.80;;;;;;;13.51;41.03;101260.97;5071260;28;20061;-82
2021/04/24 10:00:02;;;;;;;17.15;9.43;;;;;;;13.55;39.91;101265.19;5078987;28;20068;-82
2021/04/24 10:02:35;;;;;;;17.15;8.88;;;;;;;13.41;40.31;101264.09;5068553;28;20061;-80
2021/04/24 10:05:33;;;;;;;13.98;8.27;;;;;;;13.24;41.01;101259.53;5066732;28;20076;-84
2021/04/24 10:08:00;;;;;;;16.40;9.23;;;;;;;13.30;40.80;101253.94;5064519;28;20049;-81
2021/04/24 10:10:29;;;;;;;15.93;8.27;;;;;;;13.62;40.99;101257.81;5049337;28;20046;-82
2021/04/24 10:12:57;;;;;;;15.48;8.52;;;;;;;13.77;40.98;101257.09;5066058;28;20108;-83
2021/04/24 10:15:47;;;;;;;12.85;7.78;;;;;;;13.91;41.16;101251.13;5067859;28;20046;-84
2021/04/24 10:18:16;;;;;;;15.35;8.93;;;;;;;14.06;39.86;101245.06;5063503;28;20048;-81
2021/04/24 10:20:47;;;;;;;16.48;9.18;;;;;;;14.13;38.62;101219.88;5066740;28;20300;-81
2021/04/24 10:23:21;;;;;;;14.57;8.75;;;;;;;14.19;39.08;101227.56;5064287;28;20155;-82
2021/04/24 10:25:49;;;;;;;16.23;9.27;;;;;;;14.35;38.87;101239.19;5066863;28;20048;-82
2021/04/24 10:28:22;;;;;;;17.73;9.55;;;;;;;14.53;38.93;101233.91;5073533;28;20109;-83
2021/04/24 10:30:53;;;;;;;16.67;9.45;;;;;;;14.48;37.55;101227.97;5065916;28;20043;-83
2021/04/24 10:33:23;;;;;;;15.10;9.35;;;;;;;14.36;37.65;101189.44;5080835;28;20054;-82
2021/04/24 10:35:55;;;;;;;17.35;9.82;;;;;;;14.43;37.14;101198.88;5073211;28;20045;-81
2021/04/24 10:38:24;;;;;;;16.23;9.57;;;;;;;14.33;37.89;101218.88;5073798;28;20033;-82
2021/04/24 10:40:51;;;;;;;15.82;9.68;;;;;;;14.31;37.99;101212.78;5058672;28;20034;-81
2021/04/24 10:43:23;;;;;;;14.13;8.43;;;;;;;14.30;38.37;101201.28;5069318;28;20498;-83
2021/04/24 10:45:50;;;;;;;16.70;10.00;;;;;;;14.55;37.91;101208.06;5059702;28;20103;-82
2021/04/24 10:48:24;;;;;;;14.52;8.15;;;;;;;14.62;38.82;101206.81;5052646;28;20767;-82
2021/04/24 10:50:54;;;;;;;16.05;8.50;;;;;;;14.94;38.65;101210.50;5056631;28;20099;-81
2021/04/24 10:53:30;;;;;;;14.73;9.40;;;;;;;15.04;37.60;101209.06;5056105;28;20389;-82
2021/04/24 10:56:05;;;;;;;15.20;8.55;;;;;;;15.19;37.70;101208.25;5047726;28;20484;-82
2021/04/24 10:58:32;;;;;;;13.43;8.60;;;;;;;15.26;37.48;101224.81;5068287;28;20071;-82
2021/04/24 11:01:01;;;;;;;15.90;9.13;;;;;;;15.29;36.91;101201.47;5077360;28;20057;-83
2021/04/24 11:03:52;;;;;;;15.25;9.52;;;;;;;15.27;36.53;101203.34;5050359;28;20143;-83
2021/04/24 11:06:23;;;;;;;17.00;9.23;;;;;;;14.98;37.08;101210.25;5074236;28;20037;-83
2021/04/24 11:09:10;;;;;;;13.90;7.90;;;;;;;14.98;37.28;101204.03;5057261;28;20396;-82
2021/04/24 11:11:39;;;;;;;16.42;9.07;;;;;;;14.95;37.68;101210.41;5060794;28;20220;-82
2021/04/24 11:14:06;;;;;;;18.02;9.27;;;;;;;14.88;37.34;101209.00;5060551;28;20076;-83
2021/04/24 11:16:33;;;;;;;12.13;8.48;;;;;;;14.97;37.45;101186.31;5046944;28;20064;-81
2021/04/24 11:19:06;;;;;;;15.55;9.10;;;;;;;15.14;37.05;101204.97;5063083;28;20049;-84
2021/04/24 11:21:35;;;;;;;15.85;8.20;;;;;;;15.00;37.27;101180.81;5071812;28;20056;-84
2021/04/24 11:24:16;;;;;;;14.63;8.70;;;;;;;15.13;37.03;101197.03;5060871;28;20067;-82
2021/04/24 11:26:42;;;;;;;14.38;8.73;;;;;;;15.17;37.13;101193.28;5061756;28;20038;-84
2021/04/24 11:29:42;;;;;;;13.25;8.68;;;;;;;15.15;36.88;101196.00;5059046;28;20045;-82